PWSweather.com
Personal Weather Stations
Station Observations
KMAMEDFI2
Medfield, MA 02052

Medfield, MA 02052

Lat: 42.1900822, Lon: -71.3296889

Elevation: 138

Station Type: Rainwise WS MK-III

http://www.medfieldweather.com

High Low Average
Temperature 28.2°F-2.1°C 10.3°F-12.1°C 17.9°F-7.8°C
Dew Point 6.5°F-14.2°C -0.4°F-18.0°C 2.7°F-16.3°C
Winds 10.4 mph 16.7 kmh Calm Calm 3.0 mph WSW4.8 kmh WSW
Wind Gusts 18.4 mph29.6 kmh -- 5.0 mph8.0 kmh
Humidity 70% 32% 52%
Pressure 30.43 in1030.5 mb 30.28 in1025.4 mb -
Precipitation 0.00 in0.0 mm - -
Hour Temp Dew Point Humidity Winds Wind Gusts Pressure Precip Precip Rate Daily Precip Total
12:00 AM 14.0°F-10.0°C 0.7°F-17.4°C 55% 3.5 mph WNW5.6 kmh WNW 5.8 mph9.3 kmh 30.28 in1025.4 mb - 0.00 in0.0 mm 0.00 in0.0 mm
12:10 AM 14.0°F-10.0°C 0.7°F-17.4°C 55% 2.3 mph NW3.7 kmh NW 2.3 mph3.7 kmh 30.27 in1025.1 mb - 0.00 in0.0 mm 0.00 in0.0 mm
12:20 AM 13.9°F-10.1°C 0.7°F-17.4°C 55% 3.5 mph WSW5.6 kmh WSW 8.1 mph13.0 kmh 30.28 in1025.4 mb - 0.00 in0.0 mm 0.00 in0.0 mm
12:30 AM 13.7°F-10.2°C 0.8°F-17.3°C 56% 5.8 mph WNW9.3 kmh WNW 8.1 mph13.0 kmh 30.28 in1025.4 mb - 0.00 in0.0 mm 0.00 in0.0 mm
12:40 AM 13.8°F-10.1°C 0.6°F-17.4°C 55% 4.6 mph WSW7.4 kmh WSW 2.3 mph3.7 kmh 30.28 in1025.4 mb - 0.00 in0.0 mm 0.00 in0.0 mm
12:50 AM 13.8°F-10.1°C 0.6°F-17.4°C 55% 4.6 mph WSW7.4 kmh WSW 5.8 mph9.3 kmh 30.28 in1025.4 mb - 0.00 in0.0 mm 0.00 in0.0 mm
01:00 AM 13.4°F-10.3°C 0.2°F-17.7°C 55% 4.6 mph WNW7.4 kmh WNW 5.8 mph9.3 kmh 30.28 in1025.4 mb - 0.00 in0.0 mm 0.00 in0.0 mm
01:10 AM 13.3°F-10.4°C 0.1°F-17.7°C 55% 3.5 mph W5.6 kmh W 2.3 mph3.7 kmh 30.28 in1025.4 mb - 0.00 in0.0 mm 0.00 in0.0 mm
01:20 AM 13.2°F-10.4°C 0.1°F-17.7°C 55% 5.8 mph WNW9.3 kmh WNW 8.1 mph13.0 kmh 30.28 in1025.4 mb - 0.00 in0.0 mm 0.00 in0.0 mm
01:30 AM 13.2°F-10.4°C 0.1°F-17.7°C 55% 4.6 mph NW7.4 kmh NW 8.1 mph13.0 kmh 30.29 in1025.7 mb - 0.00 in0.0 mm 0.00 in0.0 mm
01:40 AM 13.1°F-10.5°C 0.7°F-17.4°C 57% 1.2 mph WNW1.9 kmh WNW 2.3 mph3.7 kmh 30.29 in1025.7 mb - 0.00 in0.0 mm 0.00 in0.0 mm
01:50 AM 12.9°F-10.6°C -0.2°F-17.9°C 55% 4.6 mph SW7.4 kmh SW 5.8 mph9.3 kmh 30.29 in1025.7 mb - 0.00 in0.0 mm 0.00 in0.0 mm
02:00 AM 13.0°F-10.6°C -0.2°F-17.9°C 55% 3.5 mph WNW5.6 kmh WNW 8.1 mph13.0 kmh 30.29 in1025.7 mb - 0.00 in0.0 mm 0.00 in0.0 mm
02:10 AM 12.9°F-10.6°C -0.2°F-17.9°C 55% 3.5 mph N5.6 kmh N 3.5 mph5.6 kmh 30.30 in1026.1 mb - 0.00 in0.0 mm 0.00 in0.0 mm
02:20 AM 12.8°F-10.7°C -0.3°F-17.9°C 55% 3.5 mph NW5.6 kmh NW 2.3 mph3.7 kmh 30.30 in1026.1 mb - 0.00 in0.0 mm 0.00 in0.0 mm
02:30 AM 12.6°F-10.8°C -0.1°F-17.8°C 56% 3.5 mph WNW5.6 kmh WNW 2.3 mph3.7 kmh 30.31 in1026.4 mb - 0.00 in0.0 mm 0.00 in0.0 mm
02:40 AM 12.5°F-10.8°C -0.2°F-17.9°C 56% 2.3 mph WSW3.7 kmh WSW 2.3 mph3.7 kmh 30.31 in1026.4 mb - 0.00 in0.0 mm 0.00 in0.0 mm
02:50 AM 12.5°F-10.8°C -0.2°F-17.9°C 56% 2.3 mph NW3.7 kmh NW 2.3 mph3.7 kmh 30.30 in1026.1 mb - 0.00 in0.0 mm 0.00 in0.0 mm
03:00 AM 12.5°F-10.8°C 0.2°F-17.7°C 57% 5.8 mph W9.3 kmh W 8.1 mph13.0 kmh 30.30 in1026.1 mb - 0.00 in0.0 mm 0.00 in0.0 mm
03:10 AM 12.4°F-10.9°C 0.4°F-17.6°C 58% 3.5 mph WSW5.6 kmh WSW 5.8 mph9.3 kmh 30.31 in1026.4 mb - 0.00 in0.0 mm 0.00 in0.0 mm
03:20 AM 12.3°F-10.9°C 0.0°F-17.8°C 57% 3.5 mph NW5.6 kmh NW 5.8 mph9.3 kmh 30.31 in1026.4 mb - 0.00 in0.0 mm 0.00 in0.0 mm
03:30 AM 12.4°F-10.9°C -0.3°F-17.9°C 56% 4.6 mph WSW7.4 kmh WSW 11.5 mph18.5 kmh 30.32 in1026.8 mb - 0.00 in0.0 mm 0.00 in0.0 mm
03:40 AM 12.3°F-10.9°C 0.3°F-17.6°C 58% 2.3 mph NW3.7 kmh NW 2.3 mph3.7 kmh 30.32 in1026.8 mb - 0.00 in0.0 mm 0.00 in0.0 mm
03:50 AM 12.2°F-11.0°C -0.1°F-17.8°C 57% 3.5 mph NNW5.6 kmh NNW 3.5 mph5.6 kmh 30.32 in1026.8 mb - 0.00 in0.0 mm 0.00 in0.0 mm
04:00 AM 12.1°F-11.1°C -0.2°F-17.9°C 57% 2.3 mph WSW3.7 kmh WSW 2.3 mph3.7 kmh 30.33 in1027.1 mb - 0.00 in0.0 mm 0.00 in0.0 mm
04:10 AM 11.9°F-11.2°C 0.0°F-17.8°C 58% 2.3 mph W3.7 kmh W 2.3 mph3.7 kmh 30.33 in1027.1 mb - 0.00 in0.0 mm 0.00 in0.0 mm
04:20 AM 11.8°F-11.2°C -0.1°F-17.8°C 58% 4.6 mph WNW7.4 kmh WNW 2.3 mph3.7 kmh 30.33 in1027.1 mb - 0.00 in0.0 mm 0.00 in0.0 mm
04:30 AM 11.9°F-11.2°C -0.4°F-18.0°C 57% 4.6 mph WSW7.4 kmh WSW 13.8 mph22.2 kmh 30.33 in1027.1 mb - 0.00 in0.0 mm 0.00 in0.0 mm
04:40 AM 12.1°F-11.1°C -0.2°F-17.9°C 57% 1.2 mph S1.9 kmh S 2.3 mph3.7 kmh 30.34 in1027.4 mb - 0.00 in0.0 mm 0.00 in0.0 mm
04:50 AM 12.1°F-11.1°C 0.5°F-17.5°C 59% 2.3 mph WNW3.7 kmh WNW 3.5 mph5.6 kmh 30.34 in1027.4 mb - 0.00 in0.0 mm 0.00 in0.0 mm
05:00 AM 12.1°F-11.1°C 0.1°F-17.7°C 58% 4.6 mph W7.4 kmh W 9.2 mph14.8 kmh 30.34 in1027.4 mb - 0.00 in0.0 mm 0.00 in0.0 mm
05:10 AM 11.9°F-11.2°C -0.1°F-17.8°C 58% 4.6 mph W7.4 kmh W 2.3 mph3.7 kmh 30.34 in1027.4 mb - 0.00 in0.0 mm 0.00 in0.0 mm
05:20 AM 11.7°F-11.3°C 0.1°F-17.7°C 59% 4.6 mph WSW7.4 kmh WSW 3.5 mph5.6 kmh 30.34 in1027.4 mb - 0.00 in0.0 mm 0.00 in0.0 mm
05:30 AM 11.3°F-11.5°C 0.8°F-17.3°C 62% 1.2 mph SW1.9 kmh SW 2.3 mph3.7 kmh 30.35 in1027.8 mb - 0.00 in0.0 mm 0.00 in0.0 mm
05:40 AM 11.1°F-11.6°C 0.9°F-17.3°C 63% 1.2 mph W1.9 kmh W 1.2 mph1.9 kmh 30.35 in1027.8 mb - 0.00 in0.0 mm 0.00 in0.0 mm
05:50 AM 10.8°F-11.8°C 0.7°F-17.4°C 63% Calm Calm -- 30.35 in1027.8 mb - 0.00 in0.0 mm 0.00 in0.0 mm
06:00 AM 10.6°F-11.9°C 1.1°F-17.2°C 65% Calm Calm 1.2 mph1.9 kmh 30.35 in1027.8 mb - 0.00 in0.0 mm 0.00 in0.0 mm
06:10 AM 10.7°F-11.8°C 0.9°F-17.3°C 64% 2.3 mph W3.7 kmh W 2.3 mph3.7 kmh 30.35 in1027.8 mb - 0.00 in0.0 mm 0.00 in0.0 mm
06:20 AM 10.7°F-11.8°C 1.2°F-17.1°C 65% 1.2 mph WSW1.9 kmh WSW 2.3 mph3.7 kmh 30.36 in1028.1 mb - 0.00 in0.0 mm 0.00 in0.0 mm
06:30 AM 10.6°F-11.9°C 1.5°F-16.9°C 66% Calm Calm 1.2 mph1.9 kmh 30.36 in1028.1 mb - 0.00 in0.0 mm 0.00 in0.0 mm
06:40 AM 10.6°F-11.9°C 1.5°F-16.9°C 66% 2.3 mph W3.7 kmh W 3.5 mph5.6 kmh 30.36 in1028.1 mb - 0.00 in0.0 mm 0.00 in0.0 mm
06:50 AM 10.8°F-11.8°C 1.3°F-17.1°C 65% 3.5 mph W5.6 kmh W 6.9 mph11.1 kmh 30.36 in1028.1 mb - 0.00 in0.0 mm 0.00 in0.0 mm
07:00 AM 10.7°F-11.8°C 1.9°F-16.7°C 67% 1.2 mph W1.9 kmh W 1.2 mph1.9 kmh 30.36 in1028.1 mb - 0.00 in0.0 mm 0.00 in0.0 mm
07:10 AM 10.6°F-11.9°C 1.8°F-16.8°C 67% 2.3 mph WSW3.7 kmh WSW 2.3 mph3.7 kmh 30.37 in1028.4 mb - 0.00 in0.0 mm 0.00 in0.0 mm
07:20 AM 10.6°F-11.9°C 2.1°F-16.6°C 68% Calm Calm 2.3 mph3.7 kmh 30.38 in1028.8 mb - 0.00 in0.0 mm 0.00 in0.0 mm
07:30 AM 10.6°F-11.9°C 1.8°F-16.8°C 67% 2.3 mph WSW3.7 kmh WSW 2.3 mph3.7 kmh 30.37 in1028.4 mb - 0.00 in0.0 mm 0.00 in0.0 mm
07:40 AM 10.6°F-11.9°C 2.4°F-16.4°C 69% 2.3 mph WSW3.7 kmh WSW 2.3 mph3.7 kmh 30.38 in1028.8 mb - 0.00 in0.0 mm 0.00 in0.0 mm
07:50 AM 10.5°F-11.9°C 1.7°F-16.8°C 67% 2.3 mph W3.7 kmh W 2.3 mph3.7 kmh 30.38 in1028.8 mb - 0.00 in0.0 mm 0.00 in0.0 mm
08:00 AM 10.4°F-12.0°C 2.2°F-16.6°C 69% 2.3 mph W3.7 kmh W 2.3 mph3.7 kmh 30.38 in1028.8 mb - 0.00 in0.0 mm 0.00 in0.0 mm
08:10 AM 10.3°F-12.1°C 2.4°F-16.4°C 70% 1.2 mph W1.9 kmh W 1.2 mph1.9 kmh 30.38 in1028.8 mb - 0.00 in0.0 mm 0.00 in0.0 mm
08:20 AM 10.4°F-12.0°C 2.5°F-16.4°C 70% 1.2 mph WNW1.9 kmh WNW 2.3 mph3.7 kmh 30.39 in1029.1 mb - 0.00 in0.0 mm 0.00 in0.0 mm
08:30 AM 10.7°F-11.8°C 2.5°F-16.4°C 69% Calm Calm 2.3 mph3.7 kmh 30.40 in1029.5 mb - 0.00 in0.0 mm 0.00 in0.0 mm
08:40 AM 10.9°F-11.7°C 3.0°F-16.1°C 70% 1.2 mph ENE1.9 kmh ENE 2.3 mph3.7 kmh 30.39 in1029.1 mb - 0.00 in0.0 mm 0.00 in0.0 mm
08:50 AM 11.4°F-11.4°C 2.6°F-16.3°C 67% 1.2 mph W1.9 kmh W 2.3 mph3.7 kmh 30.39 in1029.1 mb - 0.00 in0.0 mm 0.00 in0.0 mm
09:00 AM 12.3°F-10.9°C 2.7°F-16.3°C 65% 2.3 mph NW3.7 kmh NW 2.3 mph3.7 kmh 30.40 in1029.5 mb - 0.00 in0.0 mm 0.00 in0.0 mm
09:10 AM 13.1°F-10.5°C 2.8°F-16.2°C 63% 3.5 mph WSW5.6 kmh WSW 3.5 mph5.6 kmh 30.40 in1029.5 mb - 0.00 in0.0 mm 0.00 in0.0 mm
09:20 AM 13.7°F-10.2°C 2.7°F-16.3°C 61% 5.8 mph SW9.3 kmh SW 5.8 mph9.3 kmh 30.40 in1029.5 mb - 0.00 in0.0 mm 0.00 in0.0 mm
09:30 AM 14.3°F-9.8°C 2.9°F-16.2°C 60% 2.3 mph WSW3.7 kmh WSW 5.8 mph9.3 kmh 30.40 in1029.5 mb - 0.00 in0.0 mm 0.00 in0.0 mm
09:40 AM 15.1°F-9.4°C 2.2°F-16.6°C 56% 4.6 mph WSW7.4 kmh WSW 8.1 mph13.0 kmh 30.41 in1029.8 mb - 0.00 in0.0 mm 0.00 in0.0 mm
09:50 AM 16.4°F-8.7°C 3.0°F-16.1°C 55% 5.8 mph WSW9.3 kmh WSW 8.1 mph13.0 kmh 30.41 in1029.8 mb - 0.00 in0.0 mm 0.00 in0.0 mm
10:00 AM 17.2°F-8.2°C 3.0°F-16.1°C 53% 4.6 mph WNW7.4 kmh WNW 10.4 mph16.7 kmh 30.41 in1029.8 mb - 0.00 in0.0 mm 0.00 in0.0 mm
10:10 AM 18.1°F-7.7°C 3.4°F-15.9°C 52% 5.8 mph W9.3 kmh W 9.2 mph14.8 kmh 30.41 in1029.8 mb - 0.00 in0.0 mm 0.00 in0.0 mm
10:20 AM 18.4°F-7.6°C 2.4°F-16.4°C 49% 4.6 mph WNW7.4 kmh WNW 5.8 mph9.3 kmh 30.42 in1030.1 mb - 0.00 in0.0 mm 0.00 in0.0 mm
10:30 AM 18.7°F-7.4°C 2.2°F-16.6°C 48% 3.5 mph WSW5.6 kmh WSW 9.2 mph14.8 kmh 30.42 in1030.1 mb - 0.00 in0.0 mm 0.00 in0.0 mm
10:40 AM 18.7°F-7.4°C 2.6°F-16.3°C 49% 3.5 mph W5.6 kmh W 5.8 mph9.3 kmh 30.42 in1030.1 mb - 0.00 in0.0 mm 0.00 in0.0 mm
10:50 AM 18.9°F-7.3°C 2.4°F-16.4°C 48% 4.6 mph W7.4 kmh W 6.9 mph11.1 kmh 30.43 in1030.5 mb - 0.00 in0.0 mm 0.00 in0.0 mm
11:00 AM 19.0°F-7.2°C 2.5°F-16.4°C 48% 4.6 mph WNW7.4 kmh WNW 10.4 mph16.7 kmh 30.43 in1030.5 mb - 0.00 in0.0 mm 0.00 in0.0 mm
11:10 AM 19.0°F-7.2°C 2.5°F-16.4°C 48% 5.8 mph WSW9.3 kmh WSW 10.4 mph16.7 kmh 30.43 in1030.5 mb - 0.00 in0.0 mm 0.00 in0.0 mm
11:20 AM 19.3°F-7.1°C 2.8°F-16.2°C 48% 5.8 mph WSW9.3 kmh WSW 10.4 mph16.7 kmh 30.42 in1030.1 mb - 0.00 in0.0 mm 0.00 in0.0 mm
11:30 AM 20.0°F-6.7°C 3.0°F-16.1°C 47% 3.5 mph WSW5.6 kmh WSW 9.2 mph14.8 kmh 30.42 in1030.1 mb - 0.00 in0.0 mm 0.00 in0.0 mm
11:40 AM 20.7°F-6.3°C 4.1°F-15.5°C 48% 8.1 mph W13.0 kmh W 11.5 mph18.5 kmh 30.42 in1030.1 mb - 0.00 in0.0 mm 0.00 in0.0 mm
11:50 AM 21.8°F-5.7°C 3.7°F-15.7°C 45% 3.5 mph WNW5.6 kmh WNW 5.8 mph9.3 kmh 30.42 in1030.1 mb - 0.00 in0.0 mm 0.00 in0.0 mm
12:00 PM 22.1°F-5.5°C 3.4°F-15.9°C 44% 5.8 mph WSW9.3 kmh WSW 8.1 mph13.0 kmh 30.41 in1029.8 mb - 0.00 in0.0 mm 0.00 in0.0 mm
12:10 PM 21.9°F-5.6°C 3.8°F-15.7°C 45% 3.5 mph WNW5.6 kmh WNW 3.5 mph5.6 kmh 30.40 in1029.5 mb - 0.00 in0.0 mm 0.00 in0.0 mm
12:20 PM 22.0°F-5.6°C 3.8°F-15.7°C 45% 2.3 mph WSW3.7 kmh WSW 6.9 mph11.1 kmh 30.40 in1029.5 mb - 0.00 in0.0 mm 0.00 in0.0 mm
12:30 PM 21.9°F-5.6°C 3.3°F-15.9°C 44% 4.6 mph NW7.4 kmh NW 8.1 mph13.0 kmh 30.40 in1029.5 mb - 0.00 in0.0 mm 0.00 in0.0 mm
12:40 PM 22.4°F-5.3°C 3.2°F-16.0°C 43% 3.5 mph WSW5.6 kmh WSW 6.9 mph11.1 kmh 30.39 in1029.1 mb - 0.00 in0.0 mm 0.00 in0.0 mm
12:50 PM 22.4°F-5.3°C 2.7°F-16.3°C 42% 5.8 mph W9.3 kmh W 2.3 mph3.7 kmh 30.39 in1029.1 mb - 0.00 in0.0 mm 0.00 in0.0 mm
01:00 PM 23.5°F-4.7°C 2.6°F-16.3°C 40% 5.8 mph WSW9.3 kmh WSW 9.2 mph14.8 kmh 30.38 in1028.8 mb - 0.00 in0.0 mm 0.00 in0.0 mm
01:10 PM 24.2°F-4.3°C 1.6°F-16.9°C 37% 10.4 mph WSW16.7 kmh WSW 11.5 mph18.5 kmh 30.38 in1028.8 mb - 0.00 in0.0 mm 0.00 in0.0 mm
01:20 PM 24.7°F-4.1°C 2.0°F-16.7°C 37% 8.1 mph W13.0 kmh W 9.2 mph14.8 kmh 30.38 in1028.8 mb - 0.00 in0.0 mm 0.00 in0.0 mm
01:30 PM 25.6°F-3.6°C 2.9°F-16.2°C 37% 5.8 mph WSW9.3 kmh WSW 10.4 mph16.7 kmh 30.38 in1028.8 mb - 0.00 in0.0 mm 0.00 in0.0 mm
01:40 PM 25.8°F-3.4°C 2.4°F-16.4°C 36% 5.8 mph SW9.3 kmh SW 5.8 mph9.3 kmh 30.38 in1028.8 mb - 0.00 in0.0 mm 0.00 in0.0 mm
01:50 PM 26.6°F-3.0°C 1.9°F-16.7°C 34% 5.8 mph WSW9.3 kmh WSW 8.1 mph13.0 kmh 30.37 in1028.4 mb - 0.00 in0.0 mm 0.00 in0.0 mm
02:00 PM 26.9°F-2.8°C 1.6°F-16.9°C 33% 6.9 mph WSW11.1 kmh WSW 9.2 mph14.8 kmh 30.37 in1028.4 mb - 0.00 in0.0 mm 0.00 in0.0 mm
02:10 PM 27.6°F-2.4°C 2.8°F-16.2°C 34% 3.5 mph W5.6 kmh W 5.8 mph9.3 kmh 30.36 in1028.1 mb - 0.00 in0.0 mm 0.00 in0.0 mm
02:20 PM 27.6°F-2.4°C 2.2°F-16.6°C 33% 6.9 mph W11.1 kmh W 8.1 mph13.0 kmh 30.37 in1028.4 mb - 0.00 in0.0 mm 0.00 in0.0 mm
02:30 PM 27.9°F-2.3°C 1.8°F-16.8°C 32% 6.9 mph W11.1 kmh W 13.8 mph22.2 kmh 30.37 in1028.4 mb - 0.00 in0.0 mm 0.00 in0.0 mm
02:40 PM 27.6°F-2.4°C 1.5°F-16.9°C 32% 8.1 mph WSW13.0 kmh WSW 18.4 mph29.6 kmh 30.37 in1028.4 mb - 0.00 in0.0 mm 0.00 in0.0 mm
02:50 PM 27.6°F-2.4°C 2.2°F-16.6°C 33% 4.6 mph WSW7.4 kmh WSW 9.2 mph14.8 kmh 30.37 in1028.4 mb - 0.00 in0.0 mm 0.00 in0.0 mm
03:00 PM 28.2°F-2.1°C 2.7°F-16.3°C 33% 5.8 mph WSW9.3 kmh WSW 8.1 mph13.0 kmh 30.37 in1028.4 mb - 0.00 in0.0 mm 0.00 in0.0 mm
03:10 PM 28.0°F-2.2°C 2.6°F-16.3°C 33% 2.3 mph N3.7 kmh N 5.8 mph9.3 kmh 30.38 in1028.8 mb - 0.00 in0.0 mm 0.00 in0.0 mm
03:20 PM 28.1°F-2.2°C 2.6°F-16.3°C 33% 4.6 mph NW7.4 kmh NW 11.5 mph18.5 kmh 30.38 in1028.8 mb - 0.00 in0.0 mm 0.00 in0.0 mm
03:30 PM 27.0°F-2.8°C 2.3°F-16.5°C 34% 6.9 mph W11.1 kmh W 9.2 mph14.8 kmh 30.38 in1028.8 mb - 0.00 in0.0 mm 0.00 in0.0 mm
03:40 PM 26.7°F-2.9°C 2.0°F-16.7°C 34% 6.9 mph SW11.1 kmh SW 11.5 mph18.5 kmh 30.38 in1028.8 mb - 0.00 in0.0 mm 0.00 in0.0 mm
03:50 PM 26.4°F-3.1°C 1.8°F-16.8°C 34% 3.5 mph WSW5.6 kmh WSW 15.0 mph24.1 kmh 30.38 in1028.8 mb - 0.00 in0.0 mm 0.00 in0.0 mm
04:00 PM 26.4°F-3.1°C 2.4°F-16.4°C 35% 5.8 mph W9.3 kmh W 9.2 mph14.8 kmh 30.37 in1028.4 mb - 0.00 in0.0 mm 0.00 in0.0 mm
04:10 PM 26.5°F-3.1°C 2.5°F-16.4°C 35% 6.9 mph W11.1 kmh W 8.1 mph13.0 kmh 30.37 in1028.4 mb - 0.00 in0.0 mm 0.00 in0.0 mm
04:20 PM 26.5°F-3.1°C 2.5°F-16.4°C 35% 5.8 mph SW9.3 kmh SW 8.1 mph13.0 kmh 30.38 in1028.8 mb - 0.00 in0.0 mm 0.00 in0.0 mm
04:30 PM 26.3°F-3.2°C 2.9°F-16.2°C 36% 2.3 mph SW3.7 kmh SW 2.3 mph3.7 kmh 30.38 in1028.8 mb - 0.00 in0.0 mm 0.00 in0.0 mm
04:40 PM 26.1°F-3.3°C 2.7°F-16.3°C 36% 3.5 mph NW5.6 kmh NW 9.2 mph14.8 kmh 30.38 in1028.8 mb - 0.00 in0.0 mm 0.00 in0.0 mm
04:50 PM 25.9°F-3.4°C 3.2°F-16.0°C 37% 3.5 mph WNW5.6 kmh WNW 8.1 mph13.0 kmh 30.38 in1028.8 mb - 0.00 in0.0 mm 0.00 in0.0 mm
05:00 PM 25.7°F-3.5°C 2.4°F-16.4°C 36% 3.5 mph W5.6 kmh W 3.5 mph5.6 kmh 30.39 in1029.1 mb - 0.00 in0.0 mm 0.00 in0.0 mm
05:10 PM 25.4°F-3.7°C 2.7°F-16.3°C 37% 2.3 mph SW3.7 kmh SW 2.3 mph3.7 kmh 30.39 in1029.1 mb - 0.00 in0.0 mm 0.00 in0.0 mm
05:20 PM 25.1°F-3.8°C 2.4°F-16.4°C 37% 2.3 mph W3.7 kmh W 2.3 mph3.7 kmh 30.39 in1029.1 mb - 0.00 in0.0 mm 0.00 in0.0 mm
05:30 PM 24.6°F-4.1°C 2.6°F-16.3°C 38% 3.5 mph W5.6 kmh W 5.8 mph9.3 kmh 30.39 in1029.1 mb - 0.00 in0.0 mm 0.00 in0.0 mm
05:40 PM 24.3°F-4.3°C 2.3°F-16.5°C 38% 2.3 mph W3.7 kmh W 2.3 mph3.7 kmh 30.39 in1029.1 mb - 0.00 in0.0 mm 0.00 in0.0 mm
05:50 PM 23.9°F-4.5°C 2.5°F-16.4°C 39% 2.3 mph WSW3.7 kmh WSW 5.8 mph9.3 kmh 30.39 in1029.1 mb - 0.00 in0.0 mm 0.00 in0.0 mm
06:00 PM 23.4°F-4.8°C 2.6°F-16.3°C 40% Calm Calm -- 30.40 in1029.5 mb - 0.00 in0.0 mm 0.00 in0.0 mm
06:10 PM 22.5°F-5.3°C 4.8°F-15.1°C 46% Calm Calm -- 30.40 in1029.5 mb - 0.00 in0.0 mm 0.00 in0.0 mm
06:20 PM 21.9°F-5.6°C 3.8°F-15.7°C 45% 3.5 mph NW5.6 kmh NW 3.5 mph5.6 kmh 30.40 in1029.5 mb - 0.00 in0.0 mm 0.00 in0.0 mm
06:30 PM 22.2°F-5.4°C 4.0°F-15.6°C 45% Calm Calm -- 30.40 in1029.5 mb - 0.00 in0.0 mm 0.00 in0.0 mm
06:40 PM 21.8°F-5.7°C 5.1°F-14.9°C 48% Calm Calm -- 30.40 in1029.5 mb - 0.00 in0.0 mm 0.00 in0.0 mm
06:50 PM 21.2°F-6.0°C 4.1°F-15.5°C 47% 1.2 mph WSW1.9 kmh WSW 1.2 mph1.9 kmh 30.41 in1029.8 mb - 0.00 in0.0 mm 0.00 in0.0 mm
07:00 PM 20.9°F-6.2°C 4.3°F-15.4°C 48% 1.2 mph NW1.9 kmh NW 2.3 mph3.7 kmh 30.42 in1030.1 mb - 0.00 in0.0 mm 0.00 in0.0 mm
07:10 PM 21.2°F-6.0°C 4.6°F-15.2°C 48% 2.3 mph SW3.7 kmh SW 3.5 mph5.6 kmh 30.42 in1030.1 mb - 0.00 in0.0 mm 0.00 in0.0 mm
07:20 PM 20.9°F-6.2°C 4.7°F-15.2°C 49% 2.3 mph SW3.7 kmh SW 2.3 mph3.7 kmh 30.42 in1030.1 mb - 0.00 in0.0 mm 0.00 in0.0 mm
07:30 PM 20.5°F-6.4°C 5.2°F-14.9°C 51% 2.3 mph WSW3.7 kmh WSW 2.3 mph3.7 kmh 30.42 in1030.1 mb - 0.00 in0.0 mm 0.00 in0.0 mm
07:40 PM 20.9°F-6.2°C 4.7°F-15.2°C 49% 3.5 mph WSW5.6 kmh WSW 5.8 mph9.3 kmh 30.42 in1030.1 mb - 0.00 in0.0 mm 0.00 in0.0 mm
07:50 PM 21.2°F-6.0°C 4.5°F-15.3°C 48% 2.3 mph WSW3.7 kmh WSW 2.3 mph3.7 kmh 30.43 in1030.5 mb - 0.00 in0.0 mm 0.00 in0.0 mm
08:00 PM 21.2°F-6.0°C 5.0°F-15.0°C 49% Calm Calm 1.2 mph1.9 kmh 30.42 in1030.1 mb - 0.00 in0.0 mm 0.00 in0.0 mm
08:10 PM 20.9°F-6.2°C 4.7°F-15.2°C 49% 2.3 mph WSW3.7 kmh WSW 5.8 mph9.3 kmh 30.43 in1030.5 mb - 0.00 in0.0 mm 0.00 in0.0 mm
08:20 PM 20.2°F-6.6°C 5.4°F-14.8°C 52% Calm Calm -- 30.43 in1030.5 mb - 0.00 in0.0 mm 0.00 in0.0 mm
08:30 PM 20.3°F-6.5°C 4.6°F-15.2°C 50% 3.5 mph W5.6 kmh W 2.3 mph3.7 kmh 30.43 in1030.5 mb - 0.00 in0.0 mm 0.00 in0.0 mm
08:40 PM 20.4°F-6.4°C 4.7°F-15.2°C 50% 2.3 mph W3.7 kmh W 2.3 mph3.7 kmh 30.43 in1030.5 mb - 0.00 in0.0 mm 0.00 in0.0 mm
08:50 PM 20.0°F-6.7°C 4.7°F-15.2°C 51% 1.2 mph NNW1.9 kmh NNW 5.8 mph9.3 kmh 30.42 in1030.1 mb - 0.00 in0.0 mm 0.00 in0.0 mm
09:00 PM 19.8°F-6.8°C 4.5°F-15.3°C 51% 2.3 mph W3.7 kmh W 6.9 mph11.1 kmh 30.43 in1030.5 mb - 0.00 in0.0 mm 0.00 in0.0 mm
09:10 PM 19.8°F-6.8°C 4.6°F-15.2°C 51% 2.3 mph WSW3.7 kmh WSW 2.3 mph3.7 kmh 30.42 in1030.1 mb - 0.00 in0.0 mm 0.00 in0.0 mm
09:20 PM 19.8°F-6.8°C 4.1°F-15.5°C 50% 3.5 mph W5.6 kmh W 2.3 mph3.7 kmh 30.42 in1030.1 mb - 0.00 in0.0 mm 0.00 in0.0 mm
09:30 PM 19.7°F-6.8°C 4.0°F-15.6°C 50% Calm Calm 2.3 mph3.7 kmh 30.42 in1030.1 mb - 0.00 in0.0 mm 0.00 in0.0 mm
09:40 PM 19.4°F-7.0°C 4.2°F-15.4°C 51% Calm Calm 2.3 mph3.7 kmh 30.42 in1030.1 mb - 0.00 in0.0 mm 0.00 in0.0 mm
09:50 PM 18.9°F-7.3°C 4.1°F-15.5°C 52% 3.5 mph WSW5.6 kmh WSW 2.3 mph3.7 kmh 30.43 in1030.5 mb - 0.00 in0.0 mm 0.00 in0.0 mm
10:00 PM 18.3°F-7.6°C 4.4°F-15.3°C 54% 2.3 mph WSW3.7 kmh WSW 2.3 mph3.7 kmh 30.43 in1030.5 mb - 0.00 in0.0 mm 0.00 in0.0 mm
10:10 PM 17.9°F-7.8°C 4.4°F-15.3°C 55% 1.2 mph WNW1.9 kmh WNW 1.2 mph1.9 kmh 30.43 in1030.5 mb - 0.00 in0.0 mm 0.00 in0.0 mm
10:20 PM 17.4°F-8.1°C 5.1°F-14.9°C 58% 2.3 mph WNW3.7 kmh WNW 2.3 mph3.7 kmh 30.43 in1030.5 mb - 0.00 in0.0 mm 0.00 in0.0 mm
10:30 PM 16.7°F-8.5°C 5.9°F-14.5°C 62% Calm Calm -- 30.42 in1030.1 mb - 0.00 in0.0 mm 0.00 in0.0 mm
10:40 PM 15.9°F-8.9°C 6.2°F-14.3°C 65% Calm Calm -- 30.43 in1030.5 mb - 0.00 in0.0 mm 0.00 in0.0 mm
10:50 PM 15.5°F-9.2°C 5.8°F-14.6°C 65% Calm Calm -- 30.42 in1030.1 mb - 0.00 in0.0 mm 0.00 in0.0 mm
11:00 PM 15.2°F-9.3°C 5.9°F-14.5°C 66% Calm Calm -- 30.42 in1030.1 mb - 0.00 in0.0 mm 0.00 in0.0 mm
11:10 PM 14.9°F-9.5°C 5.9°F-14.5°C 67% Calm Calm -- 30.42 in1030.1 mb - 0.00 in0.0 mm 0.00 in0.0 mm
11:20 PM 14.9°F-9.5°C 6.2°F-14.3°C 68% Calm Calm -- 30.42 in1030.1 mb - 0.00 in0.0 mm 0.00 in0.0 mm
11:30 PM 14.4°F-9.8°C 5.8°F-14.6°C 68% Calm Calm -- 30.42 in1030.1 mb - 0.00 in0.0 mm 0.00 in0.0 mm
11:40 PM 13.9°F-10.1°C 5.6°F-14.7°C 69% Calm Calm -- 30.42 in1030.1 mb - 0.00 in0.0 mm 0.00 in0.0 mm
11:50 PM 14.8°F-9.6°C 6.5°F-14.2°C 69% Calm Calm 1.2 mph1.9 kmh 30.42 in1030.1 mb - 0.00 in0.0 mm 0.00 in0.0 mm